Time;durP1;ratioP1;P1;durP2;ratioP2;P2;SDS_P1;SDS_P2;PMS_P1;PMS_P2;Temp;Humidity;BMP_temperature;BMP_pressure;BME280_temperature;BME280_humidity;BME280_pressure;Samples;Min_cycle;Max_cycle;Signal;HPM_P1;HPM_P2
2022/07/18 00:01:03;;;;;;;9.35;5.45;;;;;;;17.48;63.41;102382.03;5079530;28;20103;-59
2022/07/18 00:03:28;;;;;;;11.60;5.05;;;;;;;17.37;63.56;102379.78;5080126;28;20063;-57
2022/07/18 00:05:54;;;;;;;7.80;5.30;;;;;;;17.30;63.74;102373.44;5080520;28;20556;-57
2022/07/18 00:08:19;;;;;;;10.27;5.60;;;;;;;17.32;63.80;102379.47;5083959;28;20032;-57
2022/07/18 00:10:44;;;;;;;14.50;5.93;;;;;;;17.29;64.15;102363.69;5081898;28;20028;-57
2022/07/18 00:13:10;;;;;;;9.50;5.28;;;;;;;17.16;63.69;102364.28;5075276;28;20047;-59
2022/07/18 00:15:35;;;;;;;8.05;5.28;;;;;;;17.13;63.97;102369.19;5078503;28;20794;-57
2022/07/18 00:18:01;;;;;;;7.35;4.80;;;;;;;17.14;63.72;102363.63;5084600;28;20024;-56
2022/07/18 00:20:26;;;;;;;8.65;5.35;;;;;;;17.22;63.78;102360.06;5076081;28;20024;-58
2022/07/18 00:22:51;;;;;;;9.40;5.65;;;;;;;17.18;63.76;102356.06;5075826;28;20095;-57
2022/07/18 00:25:17;;;;;;;9.32;5.32;;;;;;;17.16;64.15;102358.09;5079909;28;20507;-58
2022/07/18 00:27:42;;;;;;;12.63;5.95;;;;;;;17.07;64.12;102356.47;5078669;28;20020;-56
2022/07/18 00:30:08;;;;;;;9.35;6.07;;;;;;;17.01;64.23;102353.47;5080071;28;20036;-57
2022/07/18 00:32:34;;;;;;;11.57;5.45;;;;;;;17.02;64.24;102349.75;5077728;28;20050;-58
2022/07/18 00:34:59;;;;;;;7.60;5.28;;;;;;;16.99;64.33;102347.44;5079399;28;20565;-57
2022/07/18 00:37:24;;;;;;;10.65;4.88;;;;;;;16.98;65.01;102348.44;5076526;28;20027;-58
2022/07/18 00:39:50;;;;;;;8.82;5.00;;;;;;;16.88;64.81;102347.00;5080544;28;20837;-57
2022/07/18 00:42:15;;;;;;;12.30;5.05;;;;;;;16.82;65.08;102350.38;5077726;28;20039;-57
2022/07/18 00:44:40;;;;;;;9.75;5.35;;;;;;;16.63;65.07;102338.19;5081615;28;20042;-58
2022/07/18 00:47:05;;;;;;;9.13;4.90;;;;;;;16.69;65.48;102340.19;5080293;28;20040;-56
2022/07/18 00:49:31;;;;;;;8.23;5.25;;;;;;;16.70;65.75;102345.38;5077970;28;20021;-57
2022/07/18 00:51:57;;;;;;;6.78;4.85;;;;;;;16.67;65.96;102339.53;5080279;28;20024;-56
2022/07/18 00:54:22;;;;;;;9.80;5.40;;;;;;;16.53;66.16;102329.53;5076438;28;20261;-57
2022/07/18 00:56:48;;;;;;;8.27;5.20;;;;;;;16.51;65.61;102335.06;5080352;28;20036;-54
2022/07/18 00:59:14;;;;;;;9.82;5.07;;;;;;;16.55;66.07;102335.53;5078585;28;20123;-57
2022/07/18 01:01:43;;;;;;;10.00;4.95;;;;;;;16.52;66.20;102334.03;5074164;28;20706;-57
2022/07/18 01:04:20;;;;;;;8.60;5.22;;;;;;;16.54;66.60;102332.03;5078942;28;20039;-55
2022/07/18 01:06:47;;;;;;;7.90;5.10;;;;;;;16.50;67.14;102325.34;5078373;28;20500;-56
2022/07/18 01:09:13;;;;;;;7.20;4.97;;;;;;;16.52;67.25;102322.47;5078955;28;20048;-57
2022/07/18 01:11:39;;;;;;;8.23;4.72;;;;;;;16.49;67.85;102322.84;5078816;28;20171;-58
2022/07/18 01:14:06;;;;;;;10.25;4.78;;;;;;;16.51;67.52;102323.50;5080507;28;20493;-56
2022/07/18 01:16:32;;;;;;;9.95;4.97;;;;;;;16.51;67.67;102323.50;5088432;28;20024;-57
2022/07/18 01:18:58;;;;;;;7.97;5.00;;;;;;;16.49;68.31;102315.63;5085290;28;20081;-55
2022/07/18 01:21:23;;;;;;;8.02;5.85;;;;;;;16.54;68.37;102323.97;5090942;28;20067;-59
2022/07/18 01:23:48;;;;;;;8.45;5.20;;;;;;;16.48;68.13;102322.00;5094639;28;20031;-56
2022/07/18 01:26:15;;;;;;;7.95;4.85;;;;;;;16.43;68.00;102318.97;5087701;28;20103;-58
2022/07/18 01:28:41;;;;;;;9.90;5.30;;;;;;;16.38;68.59;102321.34;5096983;28;20020;-58
2022/07/18 01:31:07;;;;;;;11.52;4.90;;;;;;;16.44;68.32;102320.63;5088748;28;20660;-58
2022/07/18 01:33:33;;;;;;;8.45;5.28;;;;;;;16.36;68.20;102326.03;5091021;28;20024;-58
2022/07/18 01:36:00;;;;;;;10.80;4.70;;;;;;;16.40;68.24;102316.63;5084160;28;20028;-58
2022/07/18 01:38:29;;;;;;;13.07;5.03;;;;;;;16.36;68.40;102326.03;5090771;28;20042;-57
2022/07/18 01:40:55;;;;;;;9.88;5.47;;;;;;;16.39;68.17;102321.16;5082764;28;20089;-57
2022/07/18 01:43:22;;;;;;;12.25;4.72;;;;;;;16.24;67.96;102320.22;5079608;28;20039;-55
2022/07/18 01:45:47;;;;;;;11.88;4.85;;;;;;;16.20;68.41;102321.56;5081141;28;20020;-57
2022/07/18 01:48:12;;;;;;;11.05;5.60;;;;;;;16.25;68.14;102323.75;5088667;28;20069;-57
2022/07/18 01:50:37;;;;;;;7.70;5.20;;;;;;;16.26;68.45;102315.53;5085521;28;20130;-58
2022/07/18 01:53:03;;;;;;;7.70;4.90;;;;;;;16.29;68.28;102315.19;5079581;28;20036;-57
2022/07/18 01:55:28;;;;;;;10.20;5.22;;;;;;;16.25;68.59;102313.00;5082963;28;20028;-58
2022/07/18 01:57:53;;;;;;;8.15;4.57;;;;;;;16.08;68.56;102312.19;5084123;28;20023;-57
2022/07/18 02:00:19;;;;;;;8.23;5.13;;;;;;;16.10;68.39;102311.03;5087853;28;20027;-56
2022/07/18 02:02:44;;;;;;;7.05;5.03;;;;;;;16.10;68.09;102318.22;5084377;28;20110;-57
2022/07/18 02:05:09;;;;;;;9.27;5.22;;;;;;;16.11;68.15;102317.22;5087213;28;20035;-57
2022/07/18 02:07:37;;;;;;;7.90;4.70;;;;;;;16.03;67.81;102310.03;5091801;28;20399;-57
2022/07/18 02:10:14;;;;;;;14.48;5.43;;;;;;;15.95;67.79;102306.53;5090730;28;20039;-57
2022/07/18 02:12:40;;;;;;;7.28;4.85;;;;;;;15.94;67.90;102299.50;5087531;28;20024;-58
2022/07/18 02:15:08;;;;;;;9.90;5.25;;;;;;;15.87;67.88;102296.66;5090668;28;20031;-56
2022/07/18 02:17:33;;;;;;;8.13;5.22;;;;;;;15.78;67.92;102293.16;5089650;28;20093;-55
2022/07/18 02:19:59;;;;;;;11.30;5.97;;;;;;;15.76;67.91;102287.13;5092214;28;20370;-57
2022/07/18 02:22:24;;;;;;;9.95;5.45;;;;;;;15.80;67.88;102284.94;5094360;28;20026;-56
2022/07/18 02:24:51;;;;;;;7.68;4.95;;;;;;;15.88;68.03;102292.13;5092948;28;20066;-58
2022/07/18 02:27:16;;;;;;;10.32;5.22;;;;;;;15.91;68.49;102289.16;5092976;28;20058;-57
2022/07/18 02:29:42;;;;;;;10.80;5.18;;;;;;;15.93;68.43;102298.69;5091072;28;20062;-58
2022/07/18 02:32:07;;;;;;;9.15;5.05;;;;;;;15.89;68.20;102291.13;5087157;28;20035;-56
2022/07/18 02:34:33;;;;;;;9.00;5.32;;;;;;;15.78;68.18;102284.28;5089412;28;20497;-58
2022/07/18 02:36:58;;;;;;;10.27;5.32;;;;;;;15.59;68.15;102290.81;5088055;28;20031;-58
2022/07/18 02:39:24;;;;;;;7.75;5.07;;;;;;;15.42;68.00;102271.22;5091965;28;20020;-57
2022/07/18 02:41:49;;;;;;;7.40;5.15;;;;;;;15.50;67.91;102281.94;5090846;28;20055;-56
2022/07/18 02:44:15;;;;;;;9.85;5.32;;;;;;;15.53;68.19;102278.06;5089751;28;20034;-57
2022/07/18 02:46:40;;;;;;;10.63;5.80;;;;;;;15.48;68.33;102275.91;5096402;28;20026;-55
2022/07/18 02:49:06;;;;;;;9.00;5.93;;;;;;;15.42;68.40;102281.94;5097263;28;20015;-57
2022/07/18 02:51:31;;;;;;;11.32;5.90;;;;;;;15.40;68.58;102291.16;5093452;28;20102;-57
2022/07/18 02:53:56;;;;;;;11.85;5.80;;;;;;;15.50;68.76;102291.81;5081475;28;20028;-56
2022/07/18 02:56:22;;;;;;;9.98;5.53;;;;;;;15.51;69.08;102282.75;5087215;28;20038;-56
2022/07/18 02:58:47;;;;;;;8.63;5.15;;;;;;;15.38;69.26;102285.13;5086836;28;20078;-57
2022/07/18 03:01:12;;;;;;;8.20;5.10;;;;;;;15.32;69.16;102277.72;5089191;28;20630;-59
2022/07/18 03:03:38;;;;;;;8.63;5.20;;;;;;;15.19;68.51;102279.06;5092842;28;20274;-58
2022/07/18 03:06:04;;;;;;;9.77;5.47;;;;;;;15.11;68.91;102284.41;5085511;28;20028;-58
2022/07/18 03:08:29;;;;;;;7.68;5.47;;;;;;;15.04;68.99;102275.38;5083918;28;20035;-56
2022/07/18 03:10:54;;;;;;;7.22;5.30;;;;;;;15.01;69.22;102267.66;5086176;28;20081;-58
2022/07/18 03:13:20;;;;;;;7.75;5.50;;;;;;;15.08;69.55;102270.53;5092860;28;20635;-59
2022/07/18 03:15:45;;;;;;;11.32;5.53;;;;;;;15.10;69.26;102261.34;5087190;28;20038;-59
2022/07/18 03:18:10;;;;;;;8.23;5.40;;;;;;;15.11;69.19;102259.50;5087949;28;20077;-59
2022/07/18 03:20:35;;;;;;;8.10;4.72;;;;;;;15.16;69.65;102268.69;5086697;28;20113;-58
2022/07/18 03:23:08;;;;;;;8.18;4.97;;;;;;;15.17;69.65;102259.66;5088142;28;20690;-57
2022/07/18 03:25:33;;;;;;;9.30;5.53;;;;;;;15.15;69.89;102267.03;5092394;28;20027;-57
2022/07/18 03:27:59;;;;;;;8.32;5.25;;;;;;;15.09;70.26;102254.31;5092177;28;20039;-56
2022/07/18 03:30:24;;;;;;;5.93;4.95;;;;;;;15.05;70.65;102258.34;5090655;28;20064;-57
2022/07/18 03:32:50;;;;;;;7.88;4.63;;;;;;;15.05;70.32;102262.84;5090885;28;20054;-57
2022/07/18 03:35:15;;;;;;;9.15;5.20;;;;;;;15.10;70.53;102265.84;5085491;28;20039;-56
2022/07/18 03:37:41;;;;;;;7.25;5.35;;;;;;;15.06;70.63;102253.81;5088403;28;20019;-56
2022/07/18 03:40:07;;;;;;;8.85;5.30;;;;;;;15.06;71.02;102254.66;5085480;28;20040;-58
2022/07/18 03:42:33;;;;;;;7.97;5.25;;;;;;;14.99;71.10;102255.47;5095207;28;20105;-56
2022/07/18 03:44:59;;;;;;;9.25;4.53;;;;;;;15.02;71.20;102255.97;5077703;28;20030;-59
2022/07/18 03:47:24;;;;;;;7.35;4.90;;;;;;;15.03;71.00;102260.31;5077252;28;20028;-57
2022/07/18 03:49:49;;;;;;;7.22;5.10;;;;;;;14.97;70.91;102254.78;5080059;28;20051;-55
2022/07/18 03:52:14;;;;;;;7.55;5.20;;;;;;;14.91;71.12;102247.44;5079710;28;20058;-57
2022/07/18 03:54:40;;;;;;;7.90;5.32;;;;;;;14.87;71.14;102241.56;5079814;28;20035;-57
2022/07/18 03:57:05;;;;;;;11.63;5.70;;;;;;;14.84;71.40;102241.91;5078757;28;20038;-58
2022/07/18 03:59:30;;;;;;;8.55;5.35;;;;;;;14.82;71.26;102250.09;5076507;28;20095;-57
2022/07/18 04:01:56;;;;;;;7.80;5.00;;;;;;;14.87;71.14;102244.25;5078674;28;20020;-58
2022/07/18 04:04:21;;;;;;;11.70;5.68;;;;;;;14.91;71.38;102242.06;5080312;28;20036;-58
2022/07/18 04:06:47;;;;;;;10.60;4.93;;;;;;;14.93;71.10;102253.44;5081096;28;20497;-57
2022/07/18 04:09:12;;;;;;;8.07;5.15;;;;;;;14.98;70.93;102249.28;5078644;28;20108;-55
2022/07/18 04:11:37;;;;;;;8.57;4.90;;;;;;;14.91;70.98;102236.72;5079416;28;20035;-57
2022/07/18 04:14:03;;;;;;;12.45;5.32;;;;;;;15.00;71.13;102239.25;5077042;28;20492;-56
2022/07/18 04:16:28;;;;;;;7.32;4.90;;;;;;;14.99;71.10;102234.88;5079945;28;20031;-56
2022/07/18 04:18:53;;;;;;;7.45;5.10;;;;;;;15.09;70.71;102234.75;5080224;28;20576;-56
2022/07/18 04:21:19;;;;;;;13.50;4.75;;;;;;;15.10;71.01;102239.94;5078549;28;20035;-57
2022/07/18 04:23:44;;;;;;;7.60;5.13;;;;;;;15.11;70.70;102243.44;5081115;28;20027;-57
2022/07/18 04:26:09;;;;;;;7.20;4.97;;;;;;;15.15;70.98;102229.56;5079105;28;20035;-56
2022/07/18 04:28:34;;;;;;;8.90;5.70;;;;;;;15.18;70.87;102225.72;5077955;28;20035;-54
2022/07/18 04:31:00;;;;;;;11.85;5.13;;;;;;;15.11;70.94;102238.09;5079408;28;20035;-56
2022/07/18 04:33:26;;;;;;;8.55;5.00;;;;;;;15.06;70.92;102225.22;5077283;28;20048;-55
2022/07/18 04:35:52;;;;;;;8.00;4.57;;;;;;;15.12;70.52;102229.91;5080361;28;20028;-58
2022/07/18 04:38:17;;;;;;;9.00;5.15;;;;;;;15.11;70.74;102216.69;5079277;28;20019;-59
2022/07/18 04:40:42;;;;;;;8.48;5.10;;;;;;;15.16;70.54;102209.84;5082696;28;20032;-57
2022/07/18 04:43:07;;;;;;;6.70;4.75;;;;;;;15.20;70.88;102221.03;5078380;28;20490;-58
2022/07/18 04:45:34;;;;;;;10.32;4.95;;;;;;;15.24;70.62;102218.84;5081518;28;20121;-57
2022/07/18 04:48:00;;;;;;;12.20;5.53;;;;;;;15.33;70.77;102228.56;5080183;28;20477;-58
2022/07/18 04:50:26;;;;;;;9.02;5.30;;;;;;;15.36;70.40;102221.03;5078634;28;20036;-57
2022/07/18 04:52:52;;;;;;;7.82;5.53;;;;;;;15.38;70.46;102213.69;5079465;28;20024;-57
2022/07/18 04:55:21;;;;;;;12.00;5.20;;;;;;;15.34;70.40;102216.88;5080629;28;20028;-55
2022/07/18 04:57:46;;;;;;;8.88;5.38;;;;;;;15.37;70.87;102211.19;5081156;28;20066;-57
2022/07/18 05:00:15;;;;;;;12.43;5.90;;;;;;;15.47;70.90;102209.16;5079556;28;20054;-56
2022/07/18 05:02:41;;;;;;;10.82;5.35;;;;;;;15.53;70.55;102211.13;5079763;28;20072;-57
2022/07/18 05:05:08;;;;;;;11.10;5.60;;;;;;;15.53;70.61;102219.16;5087633;28;20028;-57
2022/07/18 05:07:33;;;;;;;11.38;6.50;;;;;;;15.67;70.72;102223.88;5091373;28;20489;-57
2022/07/18 05:09:59;;;;;;;13.18;6.00;;;;;;;15.84;71.06;102223.84;5086469;28;20031;-57
2022/07/18 05:12:24;;;;;;;10.60;6.25;;;;;;;15.90;70.66;102228.50;5083741;28;20069;-57
2022/07/18 05:14:50;;;;;;;16.45;6.10;;;;;;;15.93;70.81;102229.03;5080173;28;20027;-57
2022/07/18 05:17:15;;;;;;;10.85;5.88;;;;;;;16.00;71.07;102224.63;5078841;28;20043;-58
2022/07/18 05:19:41;;;;;;;16.25;6.25;;;;;;;15.99;71.17;102228.31;5081299;28;20029;-57
2022/07/18 05:22:06;;;;;;;12.05;6.47;;;;;;;16.02;71.25;102221.78;5082704;28;20120;-57
2022/07/18 05:24:31;;;;;;;17.55;6.63;;;;;;;16.21;70.78;102224.06;5085226;28;20059;-58
2022/07/18 05:26:56;;;;;;;12.80;6.70;;;;;;;16.31;70.43;102231.88;5083065;28;20024;-58
2022/07/18 05:29:22;;;;;;;15.02;7.28;;;;;;;16.44;70.00;102226.78;5081451;28;20095;-56
2022/07/18 05:31:47;;;;;;;11.10;6.95;;;;;;;16.59;69.37;102226.91;5080777;28;20020;-57
2022/07/18 05:34:12;;;;;;;14.13;6.63;;;;;;;16.68;68.27;102224.00;5082731;28;20554;-60
2022/07/18 05:36:37;;;;;;;12.20;6.13;;;;;;;16.79;67.34;102230.84;5075615;28;20036;-58
2022/07/18 05:39:03;;;;;;;14.85;7.25;;;;;;;16.88;66.88;102231.63;5081761;28;20033;-58
2022/07/18 05:41:28;;;;;;;13.30;6.93;;;;;;;16.98;66.29;102229.53;5078943;28;20554;-59
2022/07/18 05:43:54;;;;;;;13.20;6.43;;;;;;;17.06;66.19;102231.31;5081119;28;20037;-58
2022/07/18 05:46:19;;;;;;;10.15;6.45;;;;;;;17.17;65.66;102233.59;5082887;28;20807;-58
2022/07/18 05:48:45;;;;;;;9.73;6.55;;;;;;;17.22;65.11;102231.19;5086829;28;20098;-57
2022/07/18 05:51:11;;;;;;;12.95;6.63;;;;;;;17.31;64.69;102230.09;5083534;28;20401;-56
2022/07/18 05:53:36;;;;;;;10.18;6.43;;;;;;;17.44;64.66;102235.72;5069591;28;20481;-59
2022/07/18 05:56:02;;;;;;;17.17;6.90;;;;;;;17.52;64.86;102232.09;5078841;28;20020;-56
2022/07/18 05:58:27;;;;;;;13.82;6.75;;;;;;;17.61;64.42;102234.50;5083372;28;20508;-58
2022/07/18 06:00:53;;;;;;;12.95;6.43;;;;;;;17.70;64.29;102229.94;5092198;28;20633;-56
2022/07/18 06:03:19;;;;;;;15.85;6.78;;;;;;;17.84;64.36;102231.81;5094141;28;20032;-56
2022/07/18 06:05:44;;;;;;;14.85;6.85;;;;;;;17.97;63.99;102239.25;5095785;28;20726;-57
2022/07/18 06:08:09;;;;;;;10.00;6.70;;;;;;;18.06;63.89;102230.06;5087920;28;20107;-57
2022/07/18 06:10:35;;;;;;;11.32;6.30;;;;;;;18.15;63.54;102223.56;5085457;28;20052;-57
2022/07/18 06:13:00;;;;;;;11.25;6.13;;;;;;;18.26;63.45;102223.09;5095831;28;20027;-57
2022/07/18 06:15:25;;;;;;;12.10;6.53;;;;;;;18.37;62.75;102220.94;5094289;28;20035;-57
2022/07/18 06:17:51;;;;;;;14.52;6.05;;;;;;;18.36;62.23;102217.41;5097717;28;20031;-56
2022/07/18 06:20:17;;;;;;;12.82;6.30;;;;;;;18.47;60.94;102224.16;5095956;28;20107;-56
2022/07/18 06:22:42;;;;;;;12.05;6.20;;;;;;;18.57;60.35;102222.84;5093663;28;20728;-59
2022/07/18 06:25:08;;;;;;;14.60;5.93;;;;;;;18.64;59.97;102220.25;5093670;28;20516;-58
2022/07/18 06:27:35;;;;;;;12.48;6.47;;;;;;;18.73;59.53;102215.59;5095727;28;20027;-57
2022/07/18 06:30:00;;;;;;;14.82;6.50;;;;;;;18.77;59.19;102206.94;5090231;28;20386;-58
2022/07/18 06:32:25;;;;;;;13.43;6.50;;;;;;;18.88;59.16;102206.44;5086710;28;20030;-57
2022/07/18 06:34:51;;;;;;;14.35;6.68;;;;;;;19.03;58.58;102200.13;5087768;28;20024;-58
2022/07/18 06:37:16;;;;;;;21.90;7.20;;;;;;;19.04;58.27;102201.81;5091466;28;20020;-58
2022/07/18 06:39:41;;;;;;;14.07;6.55;;;;;;;19.13;58.74;102193.41;5087281;28;20409;-58
2022/07/18 06:42:06;;;;;;;14.80;7.10;;;;;;;19.18;57.95;102196.38;5087790;28;20493;-57
2022/07/18 06:44:32;;;;;;;14.48;7.25;;;;;;;19.29;57.83;102194.16;5098306;28;20047;-59
2022/07/18 06:46:59;;;;;;;11.45;7.13;;;;;;;19.41;58.31;102193.44;5086333;28;20482;-58
2022/07/18 06:49:25;;;;;;;13.18;7.53;;;;;;;19.44;57.92;102187.66;5094613;28;20020;-57
2022/07/18 06:51:50;;;;;;;15.25;7.30;;;;;;;19.50;58.17;102191.44;5090810;28;20012;-57
2022/07/18 06:54:16;;;;;;;16.25;7.32;;;;;;;19.58;57.80;102185.91;5099117;28;20027;-57
2022/07/18 06:56:41;;;;;;;18.02;7.60;;;;;;;19.71;57.93;102195.97;5089163;28;20634;-57
2022/07/18 06:59:06;;;;;;;17.17;7.78;;;;;;;19.78;57.52;102202.22;5092992;28;20544;-56
2022/07/18 07:01:32;;;;;;;13.68;7.07;;;;;;;19.92;57.71;102200.41;5093616;28;20054;-57
2022/07/18 07:03:57;;;;;;;12.85;7.78;;;;;;;19.99;57.83;102201.31;5092668;28;20023;-58
2022/07/18 07:06:22;;;;;;;22.52;7.85;;;;;;;20.08;57.72;102200.94;5089101;28;20028;-57
2022/07/18 07:08:47;;;;;;;20.10;7.47;;;;;;;20.18;57.60;102207.81;5082257;28;20037;-57
2022/07/18 07:11:13;;;;;;;15.40;7.15;;;;;;;20.25;57.66;102206.00;5096038;28;20027;-57
2022/07/18 07:13:38;;;;;;;14.48;7.35;;;;;;;20.30;57.43;102198.13;5095236;28;20023;-59
2022/07/18 07:16:03;;;;;;;16.88;7.55;;;;;;;20.37;57.20;102207.06;5089951;28;20109;-57
2022/07/18 07:18:29;;;;;;;11.93;7.35;;;;;;;20.46;57.06;102208.56;5096339;28;20043;-58
2022/07/18 07:20:54;;;;;;;11.90;7.60;;;;;;;20.51;56.64;102207.97;5084654;28;20031;-58
2022/07/18 07:23:19;;;;;;;13.63;7.63;;;;;;;20.62;56.69;102208.22;5084124;28;20060;-58
2022/07/18 07:25:45;;;;;;;14.55;7.40;;;;;;;20.62;56.59;102208.22;5084532;28;20085;-57
2022/07/18 07:28:10;;;;;;;15.20;8.20;;;;;;;20.67;56.74;102207.59;5087938;28;20060;-56
2022/07/18 07:30:35;;;;;;;15.25;7.90;;;;;;;20.75;55.92;102204.72;5099040;28;20030;-57
2022/07/18 07:33:02;;;;;;;17.50;7.53;;;;;;;20.83;55.47;102201.84;5086289;28;20027;-58
2022/07/18 07:35:28;;;;;;;13.52;7.28;;;;;;;20.88;55.63;102202.06;5092197;28;20081;-57
2022/07/18 07:37:58;;;;;;;13.18;7.05;;;;;;;20.97;54.62;102205.38;5088072;28;20077;-58
2022/07/18 07:40:26;;;;;;;13.90;7.80;;;;;;;21.07;54.71;102202.25;5094803;28;20401;-58
2022/07/18 07:42:52;;;;;;;16.52;7.72;;;;;;;21.16;54.95;102204.56;5083459;28;20067;-57
2022/07/18 07:45:18;;;;;;;13.95;7.95;;;;;;;21.28;55.01;102202.09;5088771;28;20069;-58
2022/07/18 07:47:44;;;;;;;14.30;7.10;;;;;;;21.38;54.54;102196.25;5086079;28;20085;-57
2022/07/18 07:50:11;;;;;;;16.05;7.28;;;;;;;21.44;54.07;102193.59;5095392;28;20028;-57
2022/07/18 07:52:37;;;;;;;14.73;7.03;;;;;;;21.53;53.55;102183.38;5087370;28;20571;-57
2022/07/18 07:55:05;;;;;;;10.60;6.70;;;;;;;21.58;53.29;102187.09;5088431;28;20381;-57
2022/07/18 07:57:30;;;;;;;13.48;6.55;;;;;;;21.66;53.92;102177.94;5087056;28;20035;-58
2022/07/18 07:59:55;;;;;;;11.77;6.20;;;;;;;21.71;53.54;102158.38;5087108;28;20036;-58
2022/07/18 08:02:20;;;;;;;12.50;6.45;;;;;;;21.76;52.71;102155.88;5092803;28;20035;-57
2022/07/18 08:04:46;;;;;;;13.35;6.13;;;;;;;21.85;53.04;102160.81;5093513;28;20531;-58
2022/07/18 08:07:11;;;;;;;12.88;6.18;;;;;;;21.95;52.55;102154.94;5085908;28;20044;-58
2022/07/18 08:09:37;;;;;;;19.10;5.65;;;;;;;22.03;52.80;102154.75;5087583;28;20016;-56
2022/07/18 08:12:02;;;;;;;13.73;5.40;;;;;;;22.10;52.10;102157.44;5090193;28;20646;-58
2022/07/18 08:14:28;;;;;;;16.40;5.60;;;;;;;22.18;51.82;102158.00;5082935;28;20159;-58
2022/07/18 08:16:53;;;;;;;11.02;5.47;;;;;;;22.29;51.45;102161.94;5085125;28;20107;-59
2022/07/18 08:19:18;;;;;;;12.00;5.70;;;;;;;22.36;50.82;102161.91;5089612;28;20555;-58
2022/07/18 08:21:44;;;;;;;14.60;5.45;;;;;;;22.48;51.14;102168.28;5095573;28;20133;-58
2022/07/18 08:24:09;;;;;;;11.43;4.80;;;;;;;22.61;51.12;102165.50;5086672;28;20428;-57
2022/07/18 08:26:35;;;;;;;15.00;5.18;;;;;;;22.77;50.84;102175.78;5085838;28;20470;-59
2022/07/18 08:29:02;;;;;;;9.63;5.20;;;;;;;22.96;50.37;102186.75;5084833;28;20055;-58
2022/07/18 08:31:27;;;;;;;10.85;4.60;;;;;;;23.10;49.96;102188.28;5092897;28;20051;-58
2022/07/18 08:33:52;;;;;;;9.15;3.75;;;;;;;23.16;48.91;102185.56;5087573;28;20026;-57
2022/07/18 08:36:20;;;;;;;11.07;3.85;;;;;;;23.31;48.69;102181.66;5090761;28;20106;-57
2022/07/18 08:38:45;;;;;;;10.90;4.00;;;;;;;23.38;48.15;102177.81;5090071;28;20019;-58
2022/07/18 08:41:10;;;;;;;11.35;3.90;;;;;;;23.52;48.08;102173.13;5082334;28;20024;-59
2022/07/18 08:43:35;;;;;;;7.45;3.63;;;;;;;23.67;48.30;102176.31;5085493;28;20034;-58
2022/07/18 08:46:05;;;;;;;8.73;2.97;;;;;;;23.75;47.13;102178.75;5088668;28;20358;-58
2022/07/18 08:48:31;;;;;;;9.63;2.80;;;;;;;23.84;46.24;102173.00;5093855;28;20039;-58
2022/07/18 08:50:59;;;;;;;7.57;2.65;;;;;;;23.91;44.54;102168.34;5093051;28;20023;-57
2022/07/18 08:53:25;;;;;;;5.87;2.60;;;;;;;24.02;44.88;102173.84;5086755;28;20049;-59
2022/07/18 08:55:51;;;;;;;6.03;2.63;;;;;;;24.17;44.69;102170.72;5081082;28;20024;-57
2022/07/18 08:58:17;;;;;;;7.57;2.55;;;;;;;24.35;44.31;102170.72;5086789;28;20107;-58
2022/07/18 09:00:44;;;;;;;6.22;2.72;;;;;;;24.46;44.07;102176.44;5093970;28;20577;-59
2022/07/18 09:03:09;;;;;;;5.38;2.50;;;;;;;24.64;43.21;102170.94;5078332;28;20424;-57
2022/07/18 09:05:34;;;;;;;7.60;2.63;;;;;;;24.79;43.53;102178.66;5084891;28;20121;-58
2022/07/18 09:08:15;;;;;;;10.30;2.67;;;;;;;24.89;42.81;102177.03;5085630;28;20561;-58
2022/07/18 09:11:02;;;;;;;5.80;2.35;;;;;;;25.01;42.34;102172.47;5092431;28;20030;-59
2022/07/18 09:13:33;;;;;;;7.60;2.42;;;;;;;25.14;42.18;102170.59;5085339;28;20020;-58
2022/07/18 09:16:13;;;;;;;6.95;2.40;;;;;;;25.30;42.10;102170.72;5085548;28;20069;-58
2022/07/18 09:18:42;;;;;;;10.25;2.42;;;;;;;25.42;41.44;102170.72;5087116;28;20040;-59
2022/07/18 09:21:12;;;;;;;8.23;2.05;;;;;;;25.57;40.62;102172.97;5084543;28;20488;-59
2022/07/18 09:23:40;;;;;;;13.57;2.45;;;;;;;25.74;40.86;102170.38;5080712;28;20032;-58
2022/07/18 09:26:07;;;;;;;7.95;2.33;;;;;;;25.88;40.53;102163.59;5079968;28;20145;-59
2022/07/18 09:28:53;;;;;;;9.93;2.17;;;;;;;26.09;40.22;102173.00;5081489;28;20024;-60
2022/07/18 09:31:19;;;;;;;7.00;2.00;;;;;;;26.26;38.92;102173.88;5082586;28;20032;-59
2022/07/18 09:33:55;;;;;;;9.23;2.22;;;;;;;26.49;38.16;102176.53;5084122;28;20044;-59
2022/07/18 09:36:21;;;;;;;6.88;2.00;;;;;;;26.51;38.27;102177.13;5092231;28;20032;-60
2022/07/18 09:38:47;;;;;;;6.85;2.10;;;;;;;26.76;38.44;102174.03;5095974;28;20016;-58
2022/07/18 09:41:13;;;;;;;6.40;2.17;;;;;;;26.94;38.86;102175.72;5083101;28;20036;-60
2022/07/18 09:43:39;;;;;;;5.55;1.98;;;;;;;27.12;38.07;102174.66;5087150;28;20038;-58
2022/07/18 09:46:06;;;;;;;4.45;1.98;;;;;;;27.10;36.56;102176.81;5083280;28;20103;-58
2022/07/18 09:48:32;;;;;;;4.57;1.80;;;;;;;27.29;36.68;102172.75;5086794;28;20074;-59
2022/07/18 09:50:59;;;;;;;5.75;2.00;;;;;;;27.38;36.50;102173.13;5095776;28;20028;-60
2022/07/18 09:53:27;;;;;;;6.15;2.03;;;;;;;27.51;36.43;102161.88;5087550;28;20392;-58
2022/07/18 09:55:55;;;;;;;7.00;1.88;;;;;;;27.55;36.04;102164.94;5093798;28;20027;-58
2022/07/18 09:58:28;;;;;;;7.95;1.95;;;;;;;27.49;36.73;102169.50;5089632;28;20035;-58
2022/07/18 10:00:56;;;;;;;6.78;2.08;;;;;;;27.59;36.66;102166.06;5086522;28;20120;-58
2022/07/18 10:03:22;;;;;;;5.63;2.00;;;;;;;27.80;36.30;102169.94;5087806;28;20028;-57
2022/07/18 10:05:50;;;;;;;5.93;1.95;;;;;;;27.99;35.88;102172.09;5096828;28;20128;-60
2022/07/18 10:08:18;;;;;;;6.30;1.93;;;;;;;28.02;35.72;102168.00;5089013;28;20732;-59
2022/07/18 10:10:47;;;;;;;9.20;2.00;;;;;;;28.17;36.70;102164.66;5087455;28;20273;-60
2022/07/18 10:13:14;;;;;;;6.15;2.03;;;;;;;28.26;35.59;102171.31;5086557;28;20024;-58
2022/07/18 10:15:42;;;;;;;7.10;1.98;;;;;;;28.26;35.67;102154.94;5087915;28;20023;-60
2022/07/18 10:18:12;;;;;;;8.07;1.90;;;;;;;28.25;35.56;102165.03;5095610;28;20024;-60
2022/07/18 10:20:45;;;;;;;5.30;1.67;;;;;;;28.31;34.92;102160.44;5088340;28;20024;-58
2022/07/18 10:23:18;;;;;;;9.23;2.20;;;;;;;28.44;35.74;102168.25;5094270;28;20057;-59
2022/07/18 10:25:44;;;;;;;5.18;2.10;;;;;;;28.51;35.58;102154.38;5088135;28;20608;-58
2022/07/18 10:28:12;;;;;;;5.82;2.40;;;;;;;28.65;34.86;102164.66;5096673;28;20098;-59
2022/07/18 10:30:46;;;;;;;5.45;1.90;;;;;;;28.64;34.88;102167.63;5091656;28;20059;-59
2022/07/18 10:33:38;;;;;;;6.05;2.00;;;;;;;28.68;34.37;102161.38;5086977;28;20012;-58
2022/07/18 10:36:06;;;;;;;7.38;1.85;;;;;;;28.67;35.14;102161.66;5091317;28;20071;-59
2022/07/18 10:38:32;;;;;;;7.90;1.85;;;;;;;28.66;34.86;102160.00;5095380;28;20437;-59
2022/07/18 10:41:01;;;;;;;6.65;1.83;;;;;;;28.86;35.18;102159.38;5095036;28;20537;-58
2022/07/18 10:43:32;;;;;;;4.50;1.85;;;;;;;28.89;34.95;102156.09;5091396;28;20449;-57
2022/07/18 10:46:02;;;;;;;3.35;1.80;;;;;;;28.98;35.23;102154.56;5088012;28;20059;-58
2022/07/18 10:48:33;;;;;;;7.32;2.08;;;;;;;29.06;34.32;102159.53;5087368;28;20016;-58
2022/07/18 10:51:13;;;;;;;8.15;2.13;;;;;;;29.12;34.49;102157.66;5087905;28;20059;-58
2022/07/18 10:53:53;;;;;;;6.18;1.80;;;;;;;29.40;34.44;102154.53;5090176;28;20080;-59
2022/07/18 10:56:39;;;;;;;9.02;2.20;;;;;;;29.46;34.91;102156.25;5091449;28;20035;-59
2022/07/18 10:59:18;;;;;;;8.43;2.13;;;;;;;29.53;33.66;102150.56;5075988;28;20412;-59
2022/07/18 11:01:55;;;;;;;10.52;1.90;;;;;;;29.50;33.97;102140.16;5088677;28;20454;-57
2022/07/18 11:04:33;;;;;;;5.70;1.98;;;;;;;29.87;34.88;102142.78;5083076;28;20039;-58
2022/07/18 11:07:17;;;;;;;7.32;2.05;;;;;;;29.85;34.97;102140.31;5081984;28;20038;-59
2022/07/18 11:09:44;;;;;;;9.57;2.45;;;;;;;29.95;34.53;102146.91;5084785;28;20020;-59
2022/07/18 11:12:29;;;;;;;7.60;1.85;;;;;;;30.08;33.34;102143.69;5081914;28;20056;-59
2022/07/18 11:15:11;;;;;;;5.82;2.17;;;;;;;30.22;33.64;102131.13;5090011;28;20528;-60
2022/07/18 11:17:51;;;;;;;3.63;1.70;;;;;;;30.11;32.88;102138.50;5085532;28;20039;-58
2022/07/18 11:20:37;;;;;;;4.53;1.90;;;;;;;29.92;31.85;102138.13;5087215;28;20077;-59